Mc Leansville, North Carolina
Current Conditions -  °F | °C
As of 9:54 PM on Saturday 24 Jan 2015 (Local Time) from KBUY Reporting Station
Clear Clear  
Wind Chill: 31°   Ceiling: Unl
Heat Index: 38°   Visibility: 10mi
Dew Point: 23°   Wind: 10mph
Humidity: 55%   Direction: 270°W
Pressure: 29.78"   Gusts: NA
Location:  36.112°N, 79.6658°W
Report Text: KBUY 250254Z AUTO 27009KT 10SM CLR 03/M05 A2978 RMK AO2 SLP086 T00331050 51015
Loading
Personal Weather Stations






























Interactive Weather Map New forecast layout! Learn more

10-Day Weather Forecast

Advertisements
Track Severe Weather on mobile